sensor_id;sensor_type;location;lat;lon;timestamp;temperature;humidity
66271;DHT22;53063;39.614;8.814;2024-02-14T00:02:13;7.10;99.90
66271;DHT22;53063;39.614;8.814;2024-02-14T00:04:39;7.10;99.90
66271;DHT22;53063;39.614;8.814;2024-02-14T00:07:05;7.10;99.90
66271;DHT22;53063;39.614;8.814;2024-02-14T00:09:31;7.10;99.90
66271;DHT22;53063;39.614;8.814;2024-02-14T00:11:57;7.20;99.90
66271;DHT22;53063;39.614;8.814;2024-02-14T00:14:23;7.40;99.90
66271;DHT22;53063;39.614;8.814;2024-02-14T00:16:49;7.60;99.90
66271;DHT22;53063;39.614;8.814;2024-02-14T00:19:16;7.70;99.90
66271;DHT22;53063;39.614;8.814;2024-02-14T00:21:42;7.70;99.90
66271;DHT22;53063;39.614;8.814;2024-02-14T00:24:08;7.70;99.90
66271;DHT22;53063;39.614;8.814;2024-02-14T00:26:34;7.70;99.90
66271;DHT22;53063;39.614;8.814;2024-02-14T00:29:01;7.50;99.90
66271;DHT22;53063;39.614;8.814;2024-02-14T00:31:27;7.50;99.90
66271;DHT22;53063;39.614;8.814;2024-02-14T00:33:53;7.60;99.90
66271;DHT22;53063;39.614;8.814;2024-02-14T00:36:19;7.60;99.90
66271;DHT22;53063;39.614;8.814;2024-02-14T00:38:45;7.50;99.90
66271;DHT22;53063;39.614;8.814;2024-02-14T00:41:11;7.50;99.90
66271;DHT22;53063;39.614;8.814;2024-02-14T00:43:37;7.50;99.90
66271;DHT22;53063;39.614;8.814;2024-02-14T00:46:03;7.70;99.90
66271;DHT22;53063;39.614;8.814;2024-02-14T00:48:29;7.90;99.90
66271;DHT22;53063;39.614;8.814;2024-02-14T00:50:54;8.00;99.90
66271;DHT22;53063;39.614;8.814;2024-02-14T00:53:20;8.00;99.90
66271;DHT22;53063;39.614;8.814;2024-02-14T00:55:46;7.90;99.90
66271;DHT22;53063;39.614;8.814;2024-02-14T00:58:12;7.70;99.90
66271;DHT22;53063;39.614;8.814;2024-02-14T01:00:38;7.70;99.90
66271;DHT22;53063;39.614;8.814;2024-02-14T01:03:06;7.70;99.90
66271;DHT22;53063;39.614;8.814;2024-02-14T01:05:32;7.70;99.90
66271;DHT22;53063;39.614;8.814;2024-02-14T01:07:58;7.80;99.90
66271;DHT22;53063;39.614;8.814;2024-02-14T01:10:24;7.80;99.90
66271;DHT22;53063;39.614;8.814;2024-02-14T01:12:49;7.80;99.90
66271;DHT22;53063;39.614;8.814;2024-02-14T01:15:15;7.80;99.90
66271;DHT22;53063;39.614;8.814;2024-02-14T01:17:41;7.80;99.90
66271;DHT22;53063;39.614;8.814;2024-02-14T01:20:08;7.70;99.90
66271;DHT22;53063;39.614;8.814;2024-02-14T01:22:37;7.70;99.90
66271;DHT22;53063;39.614;8.814;2024-02-14T01:25:04;7.70;99.90
66271;DHT22;53063;39.614;8.814;2024-02-14T01:27:30;7.70;99.90
66271;DHT22;53063;39.614;8.814;2024-02-14T01:29:56;7.70;99.90
66271;DHT22;53063;39.614;8.814;2024-02-14T01:32:23;7.90;99.90
66271;DHT22;53063;39.614;8.814;2024-02-14T01:34:49;8.00;99.90
66271;DHT22;53063;39.614;8.814;2024-02-14T01:37:14;8.00;99.90
66271;DHT22;53063;39.614;8.814;2024-02-14T01:39:40;8.00;99.90
66271;DHT22;53063;39.614;8.814;2024-02-14T01:42:06;8.00;99.90
66271;DHT22;53063;39.614;8.814;2024-02-14T01:44:33;8.00;99.90
66271;DHT22;53063;39.614;8.814;2024-02-14T01:47:00;8.00;99.90
66271;DHT22;53063;39.614;8.814;2024-02-14T01:49:27;8.00;99.90
66271;DHT22;53063;39.614;8.814;2024-02-14T01:51:55;8.00;99.90
66271;DHT22;53063;39.614;8.814;2024-02-14T01:54:25;8.00;99.90
66271;DHT22;53063;39.614;8.814;2024-02-14T01:56:52;8.00;99.90
66271;DHT22;53063;39.614;8.814;2024-02-14T01:59:19;8.00;99.90
66271;DHT22;53063;39.614;8.814;2024-02-14T02:01:45;7.90;99.90
66271;DHT22;53063;39.614;8.814;2024-02-14T02:04:11;7.90;99.90
66271;DHT22;53063;39.614;8.814;2024-02-14T02:06:37;7.80;99.90
66271;DHT22;53063;39.614;8.814;2024-02-14T02:09:03;7.80;99.90
66271;DHT22;53063;39.614;8.814;2024-02-14T02:11:29;7.90;99.90
66271;DHT22;53063;39.614;8.814;2024-02-14T02:13:56;7.80;99.90
66271;DHT22;53063;39.614;8.814;2024-02-14T02:16:22;7.80;99.90
66271;DHT22;53063;39.614;8.814;2024-02-14T02:18:48;7.70;99.90
66271;DHT22;53063;39.614;8.814;2024-02-14T02:21:15;7.60;99.90
66271;DHT22;53063;39.614;8.814;2024-02-14T02:23:41;7.80;99.90
66271;DHT22;53063;39.614;8.814;2024-02-14T02:26:10;7.70;99.90
66271;DHT22;53063;39.614;8.814;2024-02-14T02:28:37;7.80;99.90
66271;DHT22;53063;39.614;8.814;2024-02-14T02:31:05;7.70;99.90
66271;DHT22;53063;39.614;8.814;2024-02-14T02:33:31;7.70;99.90
66271;DHT22;53063;39.614;8.814;2024-02-14T02:35:57;7.70;99.90
66271;DHT22;53063;39.614;8.814;2024-02-14T02:38:23;7.50;99.90
66271;DHT22;53063;39.614;8.814;2024-02-14T02:40:49;7.50;99.90
66271;DHT22;53063;39.614;8.814;2024-02-14T02:43:15;7.40;99.90
66271;DHT22;53063;39.614;8.814;2024-02-14T02:45:41;7.50;99.90
66271;DHT22;53063;39.614;8.814;2024-02-14T02:48:08;7.50;99.90
66271;DHT22;53063;39.614;8.814;2024-02-14T02:50:34;7.40;99.90
66271;DHT22;53063;39.614;8.814;2024-02-14T02:52:59;7.40;99.90
66271;DHT22;53063;39.614;8.814;2024-02-14T02:55:25;7.40;99.90
66271;DHT22;53063;39.614;8.814;2024-02-14T02:57:52;7.30;99.90
66271;DHT22;53063;39.614;8.814;2024-02-14T03:00:18;7.30;99.90
66271;DHT22;53063;39.614;8.814;2024-02-14T03:02:47;7.40;99.90
66271;DHT22;53063;39.614;8.814;2024-02-14T03:05:13;7.50;99.90
66271;DHT22;53063;39.614;8.814;2024-02-14T03:07:45;7.60;99.90
66271;DHT22;53063;39.614;8.814;2024-02-14T03:10:13;7.60;99.90
66271;DHT22;53063;39.614;8.814;2024-02-14T03:12:40;7.70;99.90
66271;DHT22;53063;39.614;8.814;2024-02-14T03:15:06;7.60;99.90
66271;DHT22;53063;39.614;8.814;2024-02-14T03:17:35;7.60;99.90
66271;DHT22;53063;39.614;8.814;2024-02-14T03:20:02;7.70;99.90
66271;DHT22;53063;39.614;8.814;2024-02-14T03:22:28;7.60;99.90
66271;DHT22;53063;39.614;8.814;2024-02-14T03:24:54;7.70;99.90
66271;DHT22;53063;39.614;8.814;2024-02-14T03:27:20;7.70;99.90
66271;DHT22;53063;39.614;8.814;2024-02-14T03:29:49;7.70;99.90
66271;DHT22;53063;39.614;8.814;2024-02-14T03:32:16;7.80;99.90
66271;DHT22;53063;39.614;8.814;2024-02-14T03:34:42;7.80;99.90
66271;DHT22;53063;39.614;8.814;2024-02-14T03:37:10;7.90;99.90
66271;DHT22;53063;39.614;8.814;2024-02-14T03:39:35;8.00;99.90
66271;DHT22;53063;39.614;8.814;2024-02-14T03:42:02;8.10;99.90
66271;DHT22;53063;39.614;8.814;2024-02-14T03:44:33;8.20;99.90
66271;DHT22;53063;39.614;8.814;2024-02-14T03:46:59;8.40;99.90
66271;DHT22;53063;39.614;8.814;2024-02-14T03:49:25;8.40;99.90
66271;DHT22;53063;39.614;8.814;2024-02-14T03:51:52;8.40;99.90
66271;DHT22;53063;39.614;8.814;2024-02-14T03:54:20;8.40;99.90
66271;DHT22;53063;39.614;8.814;2024-02-14T03:56:46;8.40;99.90
66271;DHT22;53063;39.614;8.814;2024-02-14T03:59:12;8.50;99.90
66271;DHT22;53063;39.614;8.814;2024-02-14T04:01:38;8.50;99.90
66271;DHT22;53063;39.614;8.814;2024-02-14T04:04:04;8.60;99.90
66271;DHT22;53063;39.614;8.814;2024-02-14T04:06:30;8.60;99.90
66271;DHT22;53063;39.614;8.814;2024-02-14T04:08:57;8.70;99.90
66271;DHT22;53063;39.614;8.814;2024-02-14T04:11:24;8.80;99.90
66271;DHT22;53063;39.614;8.814;2024-02-14T04:13:50;8.90;99.90
66271;DHT22;53063;39.614;8.814;2024-02-14T04:16:19;8.90;99.90
66271;DHT22;53063;39.614;8.814;2024-02-14T04:18:45;8.90;99.90
66271;DHT22;53063;39.614;8.814;2024-02-14T04:21:11;8.90;99.90
66271;DHT22;53063;39.614;8.814;2024-02-14T04:23:37;8.90;99.90
66271;DHT22;53063;39.614;8.814;2024-02-14T04:26:03;8.90;99.90
66271;DHT22;53063;39.614;8.814;2024-02-14T04:28:29;8.90;99.90
66271;DHT22;53063;39.614;8.814;2024-02-14T04:30:55;8.90;99.90
66271;DHT22;53063;39.614;8.814;2024-02-14T04:33:22;8.90;99.90
66271;DHT22;53063;39.614;8.814;2024-02-14T04:35:48;8.80;99.90
66271;DHT22;53063;39.614;8.814;2024-02-14T04:38:14;8.80;99.90
66271;DHT22;53063;39.614;8.814;2024-02-14T04:40:39;8.70;99.90
66271;DHT22;53063;39.614;8.814;2024-02-14T04:43:05;8.70;99.90
66271;DHT22;53063;39.614;8.814;2024-02-14T04:45:31;8.60;99.90
66271;DHT22;53063;39.614;8.814;2024-02-14T04:47:57;8.50;99.90
66271;DHT22;53063;39.614;8.814;2024-02-14T04:50:23;8.40;99.90
66271;DHT22;53063;39.614;8.814;2024-02-14T04:52:50;8.40;99.90
66271;DHT22;53063;39.614;8.814;2024-02-14T04:55:16;8.30;99.90
66271;DHT22;53063;39.614;8.814;2024-02-14T04:57:41;8.20;99.90
66271;DHT22;53063;39.614;8.814;2024-02-14T05:00:08;8.10;99.90
66271;DHT22;53063;39.614;8.814;2024-02-14T05:02:35;8.00;99.90
66271;DHT22;53063;39.614;8.814;2024-02-14T05:05:01;7.90;99.90
66271;DHT22;53063;39.614;8.814;2024-02-14T05:07:28;7.60;99.90
66271;DHT22;53063;39.614;8.814;2024-02-14T05:09:54;7.60;99.90
66271;DHT22;53063;39.614;8.814;2024-02-14T05:12:22;7.50;99.90
66271;DHT22;53063;39.614;8.814;2024-02-14T05:14:48;7.50;99.90
66271;DHT22;53063;39.614;8.814;2024-02-14T05:17:14;7.50;99.90
66271;DHT22;53063;39.614;8.814;2024-02-14T05:19:42;7.50;99.90
66271;DHT22;53063;39.614;8.814;2024-02-14T05:22:08;7.40;99.90
66271;DHT22;53063;39.614;8.814;2024-02-14T05:24:34;7.30;99.90
66271;DHT22;53063;39.614;8.814;2024-02-14T05:27:04;7.30;99.90
66271;DHT22;53063;39.614;8.814;2024-02-14T05:29:31;7.30;99.90
66271;DHT22;53063;39.614;8.814;2024-02-14T05:31:57;7.30;99.90
66271;DHT22;53063;39.614;8.814;2024-02-14T05:34:23;7.30;99.90
66271;DHT22;53063;39.614;8.814;2024-02-14T05:36:49;7.30;99.90
66271;DHT22;53063;39.614;8.814;2024-02-14T05:39:14;7.40;99.90
66271;DHT22;53063;39.614;8.814;2024-02-14T05:41:41;7.30;99.90
66271;DHT22;53063;39.614;8.814;2024-02-14T05:44:07;7.20;99.90
66271;DHT22;53063;39.614;8.814;2024-02-14T05:46:33;7.40;99.90
66271;DHT22;53063;39.614;8.814;2024-02-14T05:48:59;7.40;99.90
66271;DHT22;53063;39.614;8.814;2024-02-14T05:51:25;7.40;99.90
66271;DHT22;53063;39.614;8.814;2024-02-14T05:53:51;7.30;99.90
66271;DHT22;53063;39.614;8.814;2024-02-14T05:56:17;7.20;99.90
66271;DHT22;53063;39.614;8.814;2024-02-14T05:58:43;7.10;99.90
66271;DHT22;53063;39.614;8.814;2024-02-14T06:01:09;7.20;99.90
66271;DHT22;53063;39.614;8.814;2024-02-14T06:03:35;7.10;99.90
66271;DHT22;53063;39.614;8.814;2024-02-14T06:06:01;7.20;99.90
66271;DHT22;53063;39.614;8.814;2024-02-14T06:08:27;7.20;99.90
66271;DHT22;53063;39.614;8.814;2024-02-14T06:10:53;7.20;99.90
66271;DHT22;53063;39.614;8.814;2024-02-14T06:13:19;7.10;99.90
66271;DHT22;53063;39.614;8.814;2024-02-14T06:15:45;7.00;99.90
66271;DHT22;53063;39.614;8.814;2024-02-14T06:18:11;7.00;99.90
66271;DHT22;53063;39.614;8.814;2024-02-14T06:20:37;7.00;99.90
66271;DHT22;53063;39.614;8.814;2024-02-14T06:23:04;7.20;99.90
66271;DHT22;53063;39.614;8.814;2024-02-14T06:25:31;7.10;99.90
66271;DHT22;53063;39.614;8.814;2024-02-14T06:27:56;7.10;99.90
66271;DHT22;53063;39.614;8.814;2024-02-14T06:30:22;7.20;99.90
66271;DHT22;53063;39.614;8.814;2024-02-14T06:32:48;7.20;99.90
66271;DHT22;53063;39.614;8.814;2024-02-14T06:35:14;7.10;99.90
66271;DHT22;53063;39.614;8.814;2024-02-14T06:37:45;7.10;99.90
66271;DHT22;53063;39.614;8.814;2024-02-14T06:40:11;7.20;99.90
66271;DHT22;53063;39.614;8.814;2024-02-14T06:42:37;7.30;99.90
66271;DHT22;53063;39.614;8.814;2024-02-14T06:45:03;7.40;99.90
66271;DHT22;53063;39.614;8.814;2024-02-14T06:47:29;7.40;99.90
66271;DHT22;53063;39.614;8.814;2024-02-14T06:49:58;7.30;99.90
66271;DHT22;53063;39.614;8.814;2024-02-14T06:52:24;7.30;99.90
66271;DHT22;53063;39.614;8.814;2024-02-14T06:54:50;7.30;99.90
66271;DHT22;53063;39.614;8.814;2024-02-14T06:57:16;7.20;99.90
66271;DHT22;53063;39.614;8.814;2024-02-14T06:59:46;7.40;99.90
66271;DHT22;53063;39.614;8.814;2024-02-14T07:02:12;7.50;99.90
66271;DHT22;53063;39.614;8.814;2024-02-14T07:04:37;7.60;99.90
66271;DHT22;53063;39.614;8.814;2024-02-14T07:07:04;7.70;99.90
66271;DHT22;53063;39.614;8.814;2024-02-14T07:09:30;7.80;99.90
66271;DHT22;53063;39.614;8.814;2024-02-14T07:11:56;7.90;99.90
66271;DHT22;53063;39.614;8.814;2024-02-14T07:14:23;8.10;99.90
66271;DHT22;53063;39.614;8.814;2024-02-14T07:16:49;9.40;99.90
66271;DHT22;53063;39.614;8.814;2024-02-14T07:19:16;10.80;99.90
66271;DHT22;53063;39.614;8.814;2024-02-14T07:21:42;10.60;99.90
66271;DHT22;53063;39.614;8.814;2024-02-14T07:24:08;11.00;99.90
66271;DHT22;53063;39.614;8.814;2024-02-14T07:26:34;12.00;99.90
66271;DHT22;53063;39.614;8.814;2024-02-14T07:28:59;12.30;99.90
66271;DHT22;53063;39.614;8.814;2024-02-14T07:31:29;13.50;99.90
66271;DHT22;53063;39.614;8.814;2024-02-14T07:33:56;14.50;99.90
66271;DHT22;53063;39.614;8.814;2024-02-14T07:36:22;13.80;99.90
66271;DHT22;53063;39.614;8.814;2024-02-14T07:38:48;15.10;99.90
66271;DHT22;53063;39.614;8.814;2024-02-14T07:41:14;16.00;99.90
66271;DHT22;53063;39.614;8.814;2024-02-14T07:43:39;16.30;96.00
66271;DHT22;53063;39.614;8.814;2024-02-14T07:46:05;15.60;95.60
66271;DHT22;53063;39.614;8.814;2024-02-14T07:48:33;15.80;98.40
66271;DHT22;53063;39.614;8.814;2024-02-14T07:50:59;17.80;92.30
66271;DHT22;53063;39.614;8.814;2024-02-14T07:53:25;19.00;80.00
66271;DHT22;53063;39.614;8.814;2024-02-14T07:55:51;18.50;74.50
66271;DHT22;53063;39.614;8.814;2024-02-14T07:58:18;19.00;73.30
66271;DHT22;53063;39.614;8.814;2024-02-14T08:00:44;20.80;68.70
66271;DHT22;53063;39.614;8.814;2024-02-14T08:03:10;20.80;64.70
66271;DHT22;53063;39.614;8.814;2024-02-14T08:05:36;22.00;62.30
66271;DHT22;53063;39.614;8.814;2024-02-14T08:08:02;22.90;57.40
66271;DHT22;53063;39.614;8.814;2024-02-14T08:10:27;22.30;60.50
66271;DHT22;53063;39.614;8.814;2024-02-14T08:12:53;22.00;60.40
66271;DHT22;53063;39.614;8.814;2024-02-14T08:15:19;22.50;60.30
66271;DHT22;53063;39.614;8.814;2024-02-14T08:17:45;24.00;55.90
66271;DHT22;53063;39.614;8.814;2024-02-14T08:20:11;24.80;51.40
66271;DHT22;53063;39.614;8.814;2024-02-14T08:22:37;25.40;50.20
66271;DHT22;53063;39.614;8.814;2024-02-14T08:25:03;25.20;47.90
66271;DHT22;53063;39.614;8.814;2024-02-14T08:27:30;25.40;49.20
66271;DHT22;53063;39.614;8.814;2024-02-14T08:29:57;25.10;47.50
66271;DHT22;53063;39.614;8.814;2024-02-14T08:32:23;24.50;50.00
66271;DHT22;53063;39.614;8.814;2024-02-14T08:34:48;25.10;49.00
66271;DHT22;53063;39.614;8.814;2024-02-14T08:37:16;26.50;45.80
66271;DHT22;53063;39.614;8.814;2024-02-14T08:39:41;25.50;46.80
66271;DHT22;53063;39.614;8.814;2024-02-14T08:42:07;25.50;45.60
66271;DHT22;53063;39.614;8.814;2024-02-14T08:44:35;25.60;46.50
66271;DHT22;53063;39.614;8.814;2024-02-14T08:47:01;25.70;46.30
66271;DHT22;53063;39.614;8.814;2024-02-14T08:49:26;26.80;43.20
66271;DHT22;53063;39.614;8.814;2024-02-14T08:51:52;27.40;41.70
66271;DHT22;53063;39.614;8.814;2024-02-14T08:54:18;27.20;42.10
66271;DHT22;53063;39.614;8.814;2024-02-14T08:56:44;27.60;42.10
66271;DHT22;53063;39.614;8.814;2024-02-14T08:59:10;28.30;39.40
66271;DHT22;53063;39.614;8.814;2024-02-14T09:01:37;27.80;40.30
66271;DHT22;53063;39.614;8.814;2024-02-14T09:04:03;28.00;39.70
66271;DHT22;53063;39.614;8.814;2024-02-14T09:06:28;28.60;40.00
66271;DHT22;53063;39.614;8.814;2024-02-14T09:08:54;27.30;41.60
66271;DHT22;53063;39.614;8.814;2024-02-14T09:11:20;28.00;39.90
66271;DHT22;53063;39.614;8.814;2024-02-14T09:13:48;28.30;39.00
66271;DHT22;53063;39.614;8.814;2024-02-14T09:16:16;28.70;38.20
66271;DHT22;53063;39.614;8.814;2024-02-14T09:18:44;28.10;39.10
66271;DHT22;53063;39.614;8.814;2024-02-14T09:21:10;29.20;37.60
66271;DHT22;53063;39.614;8.814;2024-02-14T09:23:36;29.10;37.30
66271;DHT22;53063;39.614;8.814;2024-02-14T09:26:06;28.70;37.60
66271;DHT22;53063;39.614;8.814;2024-02-14T09:28:32;29.20;37.90
66271;DHT22;53063;39.614;8.814;2024-02-14T09:31:00;30.00;36.10
66271;DHT22;53063;39.614;8.814;2024-02-14T09:33:26;29.20;36.50
66271;DHT22;53063;39.614;8.814;2024-02-14T09:35:52;29.50;35.70
66271;DHT22;53063;39.614;8.814;2024-02-14T09:38:19;30.40;35.00
66271;DHT22;53063;39.614;8.814;2024-02-14T09:40:44;30.90;34.00
66271;DHT22;53063;39.614;8.814;2024-02-14T09:43:40;30.30;35.40
66271;DHT22;53063;39.614;8.814;2024-02-14T09:46:07;30.50;34.50
66271;DHT22;53063;39.614;8.814;2024-02-14T09:48:34;29.60;35.10
66271;DHT22;53063;39.614;8.814;2024-02-14T09:51:02;29.60;35.30
66271;DHT22;53063;39.614;8.814;2024-02-14T09:53:29;29.90;35.20
66271;DHT22;53063;39.614;8.814;2024-02-14T09:55:56;30.00;34.50
66271;DHT22;53063;39.614;8.814;2024-02-14T09:58:23;30.50;34.20
66271;DHT22;53063;39.614;8.814;2024-02-14T10:00:49;30.40;34.00
66271;DHT22;53063;39.614;8.814;2024-02-14T10:03:16;31.40;33.00
66271;DHT22;53063;39.614;8.814;2024-02-14T10:05:42;31.00;32.80
66271;DHT22;53063;39.614;8.814;2024-02-14T10:08:08;30.20;34.00
66271;DHT22;53063;39.614;8.814;2024-02-14T10:10:35;30.60;33.90
66271;DHT22;53063;39.614;8.814;2024-02-14T10:13:04;30.70;33.40
66271;DHT22;53063;39.614;8.814;2024-02-14T10:15:31;30.90;32.60
66271;DHT22;53063;39.614;8.814;2024-02-14T10:18:00;30.20;33.40
66271;DHT22;53063;39.614;8.814;2024-02-14T10:20:26;30.00;34.40
66271;DHT22;53063;39.614;8.814;2024-02-14T10:23:00;30.80;32.90
66271;DHT22;53063;39.614;8.814;2024-02-14T10:25:29;31.00;33.40
66271;DHT22;53063;39.614;8.814;2024-02-14T10:27:55;31.90;32.20
66271;DHT22;53063;39.614;8.814;2024-02-14T10:30:20;31.60;32.50
66271;DHT22;53063;39.614;8.814;2024-02-14T10:32:47;29.90;34.00
66271;DHT22;53063;39.614;8.814;2024-02-14T10:35:15;28.30;36.30
66271;DHT22;53063;39.614;8.814;2024-02-14T10:37:42;25.60;39.60
66271;DHT22;53063;39.614;8.814;2024-02-14T10:40:09;23.70;45.00
66271;DHT22;53063;39.614;8.814;2024-02-14T10:42:35;22.50;48.00
66271;DHT22;53063;39.614;8.814;2024-02-14T10:45:02;22.00;50.00
66271;DHT22;53063;39.614;8.814;2024-02-14T10:47:35;21.30;53.10
66271;DHT22;53063;39.614;8.814;2024-02-14T10:50:06;21.80;51.60
66271;DHT22;53063;39.614;8.814;2024-02-14T10:52:34;21.50;54.60
66271;DHT22;53063;39.614;8.814;2024-02-14T10:55:03;21.50;54.20
66271;DHT22;53063;39.614;8.814;2024-02-14T10:57:30;21.40;54.70
66271;DHT22;53063;39.614;8.814;2024-02-14T11:00:01;21.30;55.50
66271;DHT22;53063;39.614;8.814;2024-02-14T11:02:27;21.70;54.80
66271;DHT22;53063;39.614;8.814;2024-02-14T11:04:57;21.40;54.80
66271;DHT22;53063;39.614;8.814;2024-02-14T11:07:23;21.40;55.10
66271;DHT22;53063;39.614;8.814;2024-02-14T11:10:09;21.00;55.20
66271;DHT22;53063;39.614;8.814;2024-02-14T11:12:40;20.90;55.70
66271;DHT22;53063;39.614;8.814;2024-02-14T11:15:22;20.80;57.70
66271;DHT22;53063;39.614;8.814;2024-02-14T11:17:48;20.90;57.10
66271;DHT22;53063;39.614;8.814;2024-02-14T11:20:31;21.30;54.80
66271;DHT22;53063;39.614;8.814;2024-02-14T11:23:06;20.90;55.20
66271;DHT22;53063;39.614;8.814;2024-02-14T11:25:37;20.90;54.30
66271;DHT22;53063;39.614;8.814;2024-02-14T11:28:13;20.80;55.50
66271;DHT22;53063;39.614;8.814;2024-02-14T11:30:43;20.90;55.50
66271;DHT22;53063;39.614;8.814;2024-02-14T11:33:20;21.00;54.10
66271;DHT22;53063;39.614;8.814;2024-02-14T11:35:51;21.00;55.10
66271;DHT22;53063;39.614;8.814;2024-02-14T11:38:17;20.60;55.80
66271;DHT22;53063;39.614;8.814;2024-02-14T11:40:44;20.60;56.50
66271;DHT22;53063;39.614;8.814;2024-02-14T11:43:20;20.40;57.00
66271;DHT22;53063;39.614;8.814;2024-02-14T11:45:47;20.50;56.70
66271;DHT22;53063;39.614;8.814;2024-02-14T11:48:16;20.70;56.90
66271;DHT22;53063;39.614;8.814;2024-02-14T11:50:44;20.60;56.60
66271;DHT22;53063;39.614;8.814;2024-02-14T11:53:11;20.70;56.90
66271;DHT22;53063;39.614;8.814;2024-02-14T11:55:38;20.80;57.60
66271;DHT22;53063;39.614;8.814;2024-02-14T11:58:11;20.10;57.40
66271;DHT22;53063;39.614;8.814;2024-02-14T12:00:38;20.20;57.00
66271;DHT22;53063;39.614;8.814;2024-02-14T12:03:07;19.80;58.20
66271;DHT22;53063;39.614;8.814;2024-02-14T12:05:35;20.10;58.90
66271;DHT22;53063;39.614;8.814;2024-02-14T12:08:01;19.70;58.10
66271;DHT22;53063;39.614;8.814;2024-02-14T12:10:30;20.10;59.30
66271;DHT22;53063;39.614;8.814;2024-02-14T12:12:56;19.70;57.90
66271;DHT22;53063;39.614;8.814;2024-02-14T12:15:22;19.60;58.40
66271;DHT22;53063;39.614;8.814;2024-02-14T12:17:48;19.60;58.70
66271;DHT22;53063;39.614;8.814;2024-02-14T12:20:15;19.50;58.30
66271;DHT22;53063;39.614;8.814;2024-02-14T12:22:41;19.70;59.50
66271;DHT22;53063;39.614;8.814;2024-02-14T12:25:08;19.90;58.80
66271;DHT22;53063;39.614;8.814;2024-02-14T12:27:37;20.20;60.40
66271;DHT22;53063;39.614;8.814;2024-02-14T12:30:06;20.30;58.40
66271;DHT22;53063;39.614;8.814;2024-02-14T12:32:32;20.10;57.70
66271;DHT22;53063;39.614;8.814;2024-02-14T12:34:59;20.30;59.10
66271;DHT22;53063;39.614;8.814;2024-02-14T12:37:25;20.00;59.90
66271;DHT22;53063;39.614;8.814;2024-02-14T12:39:51;19.70;59.00
66271;DHT22;53063;39.614;8.814;2024-02-14T12:42:18;20.00;59.90
66271;DHT22;53063;39.614;8.814;2024-02-14T12:44:51;19.60;63.10
66271;DHT22;53063;39.614;8.814;2024-02-14T12:47:18;19.90;60.90
66271;DHT22;53063;39.614;8.814;2024-02-14T12:49:47;19.90;58.60
66271;DHT22;53063;39.614;8.814;2024-02-14T12:52:14;19.80;59.10
66271;DHT22;53063;39.614;8.814;2024-02-14T12:54:40;20.00;59.80
66271;DHT22;53063;39.614;8.814;2024-02-14T12:57:06;19.90;59.70
66271;DHT22;53063;39.614;8.814;2024-02-14T12:59:32;20.10;58.70
66271;DHT22;53063;39.614;8.814;2024-02-14T13:01:58;19.80;58.50
66271;DHT22;53063;39.614;8.814;2024-02-14T13:04:24;19.70;60.30
66271;DHT22;53063;39.614;8.814;2024-02-14T13:06:50;19.40;59.90
66271;DHT22;53063;39.614;8.814;2024-02-14T13:09:16;19.70;60.40
66271;DHT22;53063;39.614;8.814;2024-02-14T13:11:41;19.70;60.40
66271;DHT22;53063;39.614;8.814;2024-02-14T13:14:08;19.70;62.10
66271;DHT22;53063;39.614;8.814;2024-02-14T13:16:34;19.60;60.50
66271;DHT22;53063;39.614;8.814;2024-02-14T13:19:00;19.90;59.90
66271;DHT22;53063;39.614;8.814;2024-02-14T13:21:26;19.50;61.00
66271;DHT22;53063;39.614;8.814;2024-02-14T13:23:52;19.50;61.00
66271;DHT22;53063;39.614;8.814;2024-02-14T13:26:18;19.70;60.70
66271;DHT22;53063;39.614;8.814;2024-02-14T13:28:44;19.80;59.40
66271;DHT22;53063;39.614;8.814;2024-02-14T13:31:10;20.00;59.70
66271;DHT22;53063;39.614;8.814;2024-02-14T13:33:36;19.50;59.50
66271;DHT22;53063;39.614;8.814;2024-02-14T13:36:02;19.60;60.40
66271;DHT22;53063;39.614;8.814;2024-02-14T13:38:29;19.60;59.60
66271;DHT22;53063;39.614;8.814;2024-02-14T13:40:55;19.50;60.00
66271;DHT22;53063;39.614;8.814;2024-02-14T13:43:21;19.50;60.10
66271;DHT22;53063;39.614;8.814;2024-02-14T13:45:47;19.30;60.80
66271;DHT22;53063;39.614;8.814;2024-02-14T13:48:14;19.40;61.40
66271;DHT22;53063;39.614;8.814;2024-02-14T13:50:40;19.50;61.60
66271;DHT22;53063;39.614;8.814;2024-02-14T13:53:08;19.30;60.20
66271;DHT22;53063;39.614;8.814;2024-02-14T13:55:34;19.60;61.40
66271;DHT22;53063;39.614;8.814;2024-02-14T13:58:00;19.50;60.40
66271;DHT22;53063;39.614;8.814;2024-02-14T14:00:25;19.50;60.70
66271;DHT22;53063;39.614;8.814;2024-02-14T14:02:51;19.40;60.50
66271;DHT22;53063;39.614;8.814;2024-02-14T14:05:17;19.40;62.20
66271;DHT22;53063;39.614;8.814;2024-02-14T14:07:43;19.20;61.20
66271;DHT22;53063;39.614;8.814;2024-02-14T14:10:09;18.70;62.30
66271;DHT22;53063;39.614;8.814;2024-02-14T14:12:35;18.70;63.30
66271;DHT22;53063;39.614;8.814;2024-02-14T14:15:01;18.60;64.20
66271;DHT22;53063;39.614;8.814;2024-02-14T14:17:28;18.70;63.60
66271;DHT22;53063;39.614;8.814;2024-02-14T14:19:54;18.80;64.10
66271;DHT22;53063;39.614;8.814;2024-02-14T14:22:20;18.40;65.40
66271;DHT22;53063;39.614;8.814;2024-02-14T14:24:47;18.40;65.90
66271;DHT22;53063;39.614;8.814;2024-02-14T14:27:13;18.50;64.60
66271;DHT22;53063;39.614;8.814;2024-02-14T14:29:40;18.40;66.20
66271;DHT22;53063;39.614;8.814;2024-02-14T14:32:10;18.40;65.70
66271;DHT22;53063;39.614;8.814;2024-02-14T14:34:36;18.20;65.60
66271;DHT22;53063;39.614;8.814;2024-02-14T14:37:02;17.70;66.70
66271;DHT22;53063;39.614;8.814;2024-02-14T14:39:28;17.40;68.10
66271;DHT22;53063;39.614;8.814;2024-02-14T14:41:54;17.40;68.90
66271;DHT22;53063;39.614;8.814;2024-02-14T14:44:24;17.70;69.60
66271;DHT22;53063;39.614;8.814;2024-02-14T14:46:50;17.50;68.90
66271;DHT22;53063;39.614;8.814;2024-02-14T14:49:16;17.50;70.50
66271;DHT22;53063;39.614;8.814;2024-02-14T14:51:42;17.50;71.30
66271;DHT22;53063;39.614;8.814;2024-02-14T14:54:09;17.50;72.30
66271;DHT22;53063;39.614;8.814;2024-02-14T14:56:34;17.40;71.90
66271;DHT22;53063;39.614;8.814;2024-02-14T14:59:00;17.30;72.80
66271;DHT22;53063;39.614;8.814;2024-02-14T15:01:32;17.30;72.00
66271;DHT22;53063;39.614;8.814;2024-02-14T15:03:59;17.10;72.30
66271;DHT22;53063;39.614;8.814;2024-02-14T15:06:26;17.00;72.70
66271;DHT22;53063;39.614;8.814;2024-02-14T15:08:52;17.10;72.70
66271;DHT22;53063;39.614;8.814;2024-02-14T15:11:18;16.90;74.20
66271;DHT22;53063;39.614;8.814;2024-02-14T15:13:46;16.80;74.00
66271;DHT22;53063;39.614;8.814;2024-02-14T15:16:13;16.60;75.80
66271;DHT22;53063;39.614;8.814;2024-02-14T15:18:39;16.80;75.40
66271;DHT22;53063;39.614;8.814;2024-02-14T15:21:07;16.60;75.40
66271;DHT22;53063;39.614;8.814;2024-02-14T15:23:33;16.60;75.80
66271;DHT22;53063;39.614;8.814;2024-02-14T15:25:59;16.50;75.90
66271;DHT22;53063;39.614;8.814;2024-02-14T15:28:29;16.40;76.10
66271;DHT22;53063;39.614;8.814;2024-02-14T15:30:58;16.20;76.40
66271;DHT22;53063;39.614;8.814;2024-02-14T15:33:43;16.40;76.90
66271;DHT22;53063;39.614;8.814;2024-02-14T15:36:09;16.30;77.00